sensor_id;sensor_type;location;lat;lon;timestamp;pressure;altitude;pressure_sealevel;temperature;humidity
11444;BME280;5778;47.856;12.154;2023-03-26T00:01:37;95889.69;;;9.86;100.00
11444;BME280;5778;47.856;12.154;2023-03-26T00:04:05;95891.00;;;9.84;100.00
11444;BME280;5778;47.856;12.154;2023-03-26T00:06:35;95886.50;;;9.84;100.00
11444;BME280;5778;47.856;12.154;2023-03-26T00:09:04;95889.94;;;9.85;100.00
11444;BME280;5778;47.856;12.154;2023-03-26T00:11:32;95889.16;;;9.84;100.00
11444;BME280;5778;47.856;12.154;2023-03-26T00:14:00;95886.72;;;9.78;100.00
11444;BME280;5778;47.856;12.154;2023-03-26T00:16:29;95884.53;;;9.65;100.00
11444;BME280;5778;47.856;12.154;2023-03-26T00:18:57;95882.38;;;9.62;100.00
11444;BME280;5778;47.856;12.154;2023-03-26T00:21:27;95871.75;;;9.62;100.00
11444;BME280;5778;47.856;12.154;2023-03-26T00:23:57;95867.50;;;9.61;100.00
11444;BME280;5778;47.856;12.154;2023-03-26T00:26:25;95868.31;;;9.61;100.00
11444;BME280;5778;47.856;12.154;2023-03-26T00:28:53;95857.38;;;9.58;100.00
11444;BME280;5778;47.856;12.154;2023-03-26T00:31:21;95862.19;;;9.61;100.00
11444;BME280;5778;47.856;12.154;2023-03-26T00:33:49;95863.00;;;9.61;100.00
11444;BME280;5778;47.856;12.154;2023-03-26T00:36:19;95860.06;;;9.63;100.00
11444;BME280;5778;47.856;12.154;2023-03-26T00:38:46;95860.69;;;9.75;100.00
11444;BME280;5778;47.856;12.154;2023-03-26T00:41:16;95854.31;;;9.76;100.00
11444;BME280;5778;47.856;12.154;2023-03-26T00:43:48;95856.47;;;9.84;100.00
11444;BME280;5778;47.856;12.154;2023-03-26T00:46:15;95853.84;;;9.89;100.00
11444;BME280;5778;47.856;12.154;2023-03-26T00:48:43;95847.53;;;10.00;100.00
11444;BME280;5778;47.856;12.154;2023-03-26T00:51:12;95850.16;;;9.95;100.00
11444;BME280;5778;47.856;12.154;2023-03-26T00:53:40;95853.59;;;9.90;100.00
11444;BME280;5778;47.856;12.154;2023-03-26T00:56:07;95849.88;;;9.91;100.00
11444;BME280;5778;47.856;12.154;2023-03-26T00:58:37;95863.66;;;9.88;100.00
11444;BME280;5778;47.856;12.154;2023-03-26T01:01:06;95859.97;;;9.89;100.00
11444;BME280;5778;47.856;12.154;2023-03-26T01:03:35;95866.06;;;9.90;100.00
11444;BME280;5778;47.856;12.154;2023-03-26T01:06:05;95868.53;;;10.01;100.00
11444;BME280;5778;47.856;12.154;2023-03-26T01:08:36;95860.28;;;9.98;100.00
11444;BME280;5778;47.856;12.154;2023-03-26T01:11:07;95859.44;;;9.92;100.00
11444;BME280;5778;47.856;12.154;2023-03-26T01:13:45;95860.28;;;9.98;100.00
11444;BME280;5778;47.856;12.154;2023-03-26T01:16:18;95857.63;;;9.98;100.00
11444;BME280;5778;47.856;12.154;2023-03-26T01:18:47;95864.00;;;10.02;100.00
11444;BME280;5778;47.856;12.154;2023-03-26T01:21:18;95856.81;;;9.97;100.00
11444;BME280;5778;47.856;12.154;2023-03-26T01:23:55;95858.66;;;9.92;100.00
11444;BME280;5778;47.856;12.154;2023-03-26T01:26:47;95854.66;;;9.89;100.00
11444;BME280;5778;47.856;12.154;2023-03-26T01:29:21;95861.81;;;9.89;100.00
11444;BME280;5778;47.856;12.154;2023-03-26T01:31:57;95854.63;;;9.84;100.00
11444;BME280;5778;47.856;12.154;2023-03-26T01:34:32;95845.75;;;9.59;100.00
11444;BME280;5778;47.856;12.154;2023-03-26T01:37:07;95853.59;;;9.44;100.00
11444;BME280;5778;47.856;12.154;2023-03-26T01:39:45;95848.38;;;9.54;100.00
11444;BME280;5778;47.856;12.154;2023-03-26T01:42:23;95846.28;;;9.61;100.00
11444;BME280;5778;47.856;12.154;2023-03-26T01:44:55;95851.63;;;9.71;100.00
11444;BME280;5778;47.856;12.154;2023-03-26T01:47:24;95846.59;;;9.69;100.00
11444;BME280;5778;47.856;12.154;2023-03-26T01:49:51;95838.59;;;9.64;100.00
11444;BME280;5778;47.856;12.154;2023-03-26T01:52:21;95841.03;;;9.71;100.00
11444;BME280;5778;47.856;12.154;2023-03-26T01:54:53;95843.91;;;9.64;100.00
11444;BME280;5778;47.856;12.154;2023-03-26T01:57:29;95838.31;;;9.61;100.00
11444;BME280;5778;47.856;12.154;2023-03-26T02:00:11;95842.56;;;9.62;100.00
11444;BME280;5778;47.856;12.154;2023-03-26T02:02:54;95835.09;;;9.54;100.00
11444;BME280;5778;47.856;12.154;2023-03-26T02:05:28;95826.28;;;9.48;100.00
11444;BME280;5778;47.856;12.154;2023-03-26T02:08:02;95821.78;;;9.49;100.00
11444;BME280;5778;47.856;12.154;2023-03-26T02:10:38;95823.34;;;9.45;100.00
11444;BME280;5778;47.856;12.154;2023-03-26T02:13:06;95815.88;;;9.37;100.00
11444;BME280;5778;47.856;12.154;2023-03-26T02:15:33;95822.50;;;9.34;100.00
11444;BME280;5778;47.856;12.154;2023-03-26T02:18:00;95821.94;;;9.32;100.00
11444;BME280;5778;47.856;12.154;2023-03-26T02:20:28;95817.44;;;9.33;100.00
11444;BME280;5778;47.856;12.154;2023-03-26T02:22:55;95820.31;;;9.26;100.00
11444;BME280;5778;47.856;12.154;2023-03-26T02:25:23;95827.78;;;9.29;100.00
11444;BME280;5778;47.856;12.154;2023-03-26T02:27:52;95829.09;;;9.27;100.00
11444;BME280;5778;47.856;12.154;2023-03-26T02:30:21;95826.69;;;9.25;100.00
11444;BME280;5778;47.856;12.154;2023-03-26T02:32:51;95828.53;;;9.25;100.00
11444;BME280;5778;47.856;12.154;2023-03-26T02:35:20;95822.41;;;9.19;100.00
11444;BME280;5778;47.856;12.154;2023-03-26T02:37:51;95823.19;;;9.20;100.00
11444;BME280;5778;47.856;12.154;2023-03-26T02:40:20;95817.53;;;9.11;100.00
11444;BME280;5778;47.856;12.154;2023-03-26T02:42:48;95819.41;;;9.11;100.00
11444;BME280;5778;47.856;12.154;2023-03-26T02:45:17;95814.56;;;9.03;100.00
11444;BME280;5778;47.856;12.154;2023-03-26T02:48:02;95807.63;;;8.97;100.00
11444;BME280;5778;47.856;12.154;2023-03-26T02:50:50;95809.50;;;8.96;100.00
11444;BME280;5778;47.856;12.154;2023-03-26T02:53:35;95807.31;;;8.88;100.00
11444;BME280;5778;47.856;12.154;2023-03-26T02:56:26;95811.81;;;8.88;100.00
11444;BME280;5778;47.856;12.154;2023-03-26T02:59:10;95809.19;;;8.88;100.00
11444;BME280;5778;47.856;12.154;2023-03-26T03:01:40;95805.97;;;8.86;100.00
11444;BME280;5778;47.856;12.154;2023-03-26T03:04:09;95797.75;;;8.87;100.00
11444;BME280;5778;47.856;12.154;2023-03-26T03:06:36;95795.34;;;8.86;100.00
11444;BME280;5778;47.856;12.154;2023-03-26T03:09:06;95792.69;;;8.86;100.00
11444;BME280;5778;47.856;12.154;2023-03-26T03:11:34;95788.47;;;8.85;100.00
11444;BME280;5778;47.856;12.154;2023-03-26T03:14:02;95782.88;;;8.81;100.00
11444;BME280;5778;47.856;12.154;2023-03-26T03:16:30;95781.00;;;8.82;100.00
11444;BME280;5778;47.856;12.154;2023-03-26T03:19:06;95775.69;;;8.77;100.00
11444;BME280;5778;47.856;12.154;2023-03-26T03:21:37;95774.63;;;8.78;100.00
11444;BME280;5778;47.856;12.154;2023-03-26T03:24:06;95776.72;;;8.76;100.00
11444;BME280;5778;47.856;12.154;2023-03-26T03:26:36;95771.69;;;8.74;100.00
11444;BME280;5778;47.856;12.154;2023-03-26T03:29:29;95764.75;;;8.73;100.00
11444;BME280;5778;47.856;12.154;2023-03-26T03:32:07;95759.75;;;8.72;100.00
11444;BME280;5778;47.856;12.154;2023-03-26T03:34:48;95757.88;;;8.72;100.00
11444;BME280;5778;47.856;12.154;2023-03-26T03:37:17;95753.09;;;8.69;100.00
11444;BME280;5778;47.856;12.154;2023-03-26T03:39:50;95751.78;;;8.72;100.00
11444;BME280;5778;47.856;12.154;2023-03-26T03:42:20;95751.22;;;8.70;100.00
11444;BME280;5778;47.856;12.154;2023-03-26T03:44:49;95746.97;;;8.69;100.00
11444;BME280;5778;47.856;12.154;2023-03-26T03:47:36;95745.38;;;8.68;100.00
11444;BME280;5778;47.856;12.154;2023-03-26T03:50:07;95735.03;;;8.66;100.00
11444;BME280;5778;47.856;12.154;2023-03-26T03:52:37;95740.13;;;8.73;100.00
11444;BME280;5778;47.856;12.154;2023-03-26T03:55:05;95747.03;;;8.74;100.00
11444;BME280;5778;47.856;12.154;2023-03-26T03:57:43;95737.47;;;8.73;100.00
11444;BME280;5778;47.856;12.154;2023-03-26T04:00:17;95742.78;;;8.73;100.00
11444;BME280;5778;47.856;12.154;2023-03-26T04:03:01;95741.19;;;8.72;100.00
11444;BME280;5778;47.856;12.154;2023-03-26T04:05:36;95746.50;;;8.72;100.00
11444;BME280;5778;47.856;12.154;2023-03-26T04:08:03;95743.00;;;8.66;100.00
11444;BME280;5778;47.856;12.154;2023-03-26T04:10:56;95737.88;;;8.60;100.00
11444;BME280;5778;47.856;12.154;2023-03-26T04:13:42;95738.91;;;8.54;100.00
11444;BME280;5778;47.856;12.154;2023-03-26T04:16:21;95734.13;;;8.51;100.00
11444;BME280;5778;47.856;12.154;2023-03-26T04:18:48;95738.81;;;8.44;100.00
11444;BME280;5778;47.856;12.154;2023-03-26T04:21:16;95732.97;;;8.42;100.00
11444;BME280;5778;47.856;12.154;2023-03-26T04:23:45;95734.00;;;8.36;100.00
11444;BME280;5778;47.856;12.154;2023-03-26T04:26:26;95745.06;;;8.28;100.00
11444;BME280;5778;47.856;12.154;2023-03-26T04:29:21;95733.06;;;8.20;100.00
11444;BME280;5778;47.856;12.154;2023-03-26T04:31:54;95739.63;;;8.18;100.00
11444;BME280;5778;47.856;12.154;2023-03-26T04:34:24;95738.00;;;8.12;100.00
11444;BME280;5778;47.856;12.154;2023-03-26T04:37:17;95734.19;;;8.03;100.00
11444;BME280;5778;47.856;12.154;2023-03-26T04:39:56;95725.66;;;7.96;100.00
11444;BME280;5778;47.856;12.154;2023-03-26T04:42:44;95734.03;;;7.88;100.00
11444;BME280;5778;47.856;12.154;2023-03-26T04:45:18;95740.84;;;7.84;100.00
11444;BME280;5778;47.856;12.154;2023-03-26T04:47:52;95732.38;;;7.82;100.00
11444;BME280;5778;47.856;12.154;2023-03-26T04:50:19;95727.91;;;7.82;100.00
11444;BME280;5778;47.856;12.154;2023-03-26T04:52:49;95711.16;;;7.77;100.00
11444;BME280;5778;47.856;12.154;2023-03-26T04:55:39;95711.59;;;7.69;100.00
11444;BME280;5778;47.856;12.154;2023-03-26T04:58:16;95707.97;;;7.75;100.00
11444;BME280;5778;47.856;12.154;2023-03-26T05:00:53;95710.56;;;7.70;100.00
11444;BME280;5778;47.856;12.154;2023-03-26T05:03:22;95716.97;;;7.74;100.00
11444;BME280;5778;47.856;12.154;2023-03-26T05:05:50;95716.03;;;7.63;100.00
11444;BME280;5778;47.856;12.154;2023-03-26T05:08:19;95714.44;;;7.62;100.00
11444;BME280;5778;47.856;12.154;2023-03-26T05:10:46;95706.25;;;7.64;100.00
11444;BME280;5778;47.856;12.154;2023-03-26T05:13:20;95698.81;;;7.61;100.00
11444;BME280;5778;47.856;12.154;2023-03-26T05:15:50;95700.97;;;7.64;100.00
11444;BME280;5778;47.856;12.154;2023-03-26T05:18:28;95704.16;;;7.66;100.00
11444;BME280;5778;47.856;12.154;2023-03-26T05:20:58;95701.81;;;7.69;100.00
11444;BME280;5778;47.856;12.154;2023-03-26T05:23:31;95694.50;;;7.76;100.00
11444;BME280;5778;47.856;12.154;2023-03-26T05:26:10;95687.91;;;7.79;100.00
11444;BME280;5778;47.856;12.154;2023-03-26T05:28:37;95679.44;;;7.82;100.00
11444;BME280;5778;47.856;12.154;2023-03-26T05:31:30;95679.38;;;7.77;100.00
11444;BME280;5778;47.856;12.154;2023-03-26T05:33:58;95669.38;;;7.79;100.00
11444;BME280;5778;47.856;12.154;2023-03-26T05:36:26;95660.91;;;7.82;100.00
11444;BME280;5778;47.856;12.154;2023-03-26T05:39:06;95651.97;;;7.88;100.00
11444;BME280;5778;47.856;12.154;2023-03-26T05:42:08;95642.19;;;7.88;100.00
11444;BME280;5778;47.856;12.154;2023-03-26T05:44:56;95631.59;;;7.88;100.00
11444;BME280;5778;47.856;12.154;2023-03-26T05:47:26;95634.31;;;7.93;100.00
11444;BME280;5778;47.856;12.154;2023-03-26T05:49:53;95628.25;;;7.98;100.00
11444;BME280;5778;47.856;12.154;2023-03-26T05:52:20;95630.66;;;7.99;100.00
11444;BME280;5778;47.856;12.154;2023-03-26T05:55:08;95631.13;;;7.96;100.00
11444;BME280;5778;47.856;12.154;2023-03-26T05:58:07;95620.06;;;7.99;100.00
11444;BME280;5778;47.856;12.154;2023-03-26T06:00:57;95616.09;;;8.02;100.00
11444;BME280;5778;47.856;12.154;2023-03-26T06:03:45;95612.97;;;8.10;100.00
11444;BME280;5778;47.856;12.154;2023-03-26T06:06:17;95609.84;;;8.13;100.00
11444;BME280;5778;47.856;12.154;2023-03-26T06:08:52;95599.53;;;8.16;100.00
11444;BME280;5778;47.856;12.154;2023-03-26T06:11:21;95597.66;;;8.12;100.00
11444;BME280;5778;47.856;12.154;2023-03-26T06:13:52;95600.78;;;8.09;100.00
11444;BME280;5778;47.856;12.154;2023-03-26T06:16:19;95595.81;;;8.17;100.00
11444;BME280;5778;47.856;12.154;2023-03-26T06:19:05;95595.25;;;8.10;100.00
11444;BME280;5778;47.856;12.154;2023-03-26T06:21:55;95608.94;;;8.02;100.00
11444;BME280;5778;47.856;12.154;2023-03-26T06:24:34;95616.56;;;7.94;100.00
11444;BME280;5778;47.856;12.154;2023-03-26T06:27:25;95616.47;;;7.84;100.00
11444;BME280;5778;47.856;12.154;2023-03-26T06:30:21;95618.00;;;7.75;100.00
11444;BME280;5778;47.856;12.154;2023-03-26T06:33:06;95626.16;;;7.73;100.00
11444;BME280;5778;47.856;12.154;2023-03-26T06:35:41;95634.19;;;7.52;100.00
11444;BME280;5778;47.856;12.154;2023-03-26T06:38:08;95636.66;;;7.63;100.00
11444;BME280;5778;47.856;12.154;2023-03-26T06:40:35;95630.53;;;7.58;100.00
11444;BME280;5778;47.856;12.154;2023-03-26T06:43:22;95627.94;;;7.63;100.00
11444;BME280;5778;47.856;12.154;2023-03-26T06:46:12;95616.19;;;7.54;100.00
11444;BME280;5778;47.856;12.154;2023-03-26T06:48:57;95614.09;;;7.56;100.00
11444;BME280;5778;47.856;12.154;2023-03-26T06:51:26;95598.72;;;7.53;100.00
11444;BME280;5778;47.856;12.154;2023-03-26T06:54:12;95602.59;;;7.72;100.00
11444;BME280;5778;47.856;12.154;2023-03-26T06:56:48;95594.38;;;7.68;100.00
11444;BME280;5778;47.856;12.154;2023-03-26T06:59:46;95590.00;;;7.84;100.00
11444;BME280;5778;47.856;12.154;2023-03-26T07:02:31;95578.56;;;8.10;100.00
11444;BME280;5778;47.856;12.154;2023-03-26T07:05:16;95579.56;;;8.40;100.00
11444;BME280;5778;47.856;12.154;2023-03-26T07:08:02;95566.66;;;8.49;100.00
11444;BME280;5778;47.856;12.154;2023-03-26T07:10:47;95573.41;;;8.71;100.00
11444;BME280;5778;47.856;12.154;2023-03-26T07:13:17;95565.78;;;8.85;100.00
11444;BME280;5778;47.856;12.154;2023-03-26T07:15:48;95564.72;;;8.91;100.00
11444;BME280;5778;47.856;12.154;2023-03-26T07:18:34;95557.34;;;9.03;100.00
11444;BME280;5778;47.856;12.154;2023-03-26T07:21:03;95548.63;;;9.17;100.00
11444;BME280;5778;47.856;12.154;2023-03-26T07:23:32;95540.66;;;9.02;100.00
11444;BME280;5778;47.856;12.154;2023-03-26T07:26:24;95520.28;;;9.23;100.00
11444;BME280;5778;47.856;12.154;2023-03-26T07:29:16;95516.78;;;9.17;100.00
11444;BME280;5778;47.856;12.154;2023-03-26T07:32:20;95508.63;;;9.39;100.00
11444;BME280;5778;47.856;12.154;2023-03-26T07:34:54;95490.59;;;9.51;100.00
11444;BME280;5778;47.856;12.154;2023-03-26T07:37:38;95482.88;;;9.44;100.00
11444;BME280;5778;47.856;12.154;2023-03-26T07:40:43;95469.34;;;9.51;100.00
11444;BME280;5778;47.856;12.154;2023-03-26T07:43:49;95454.25;;;9.51;100.00
11444;BME280;5778;47.856;12.154;2023-03-26T07:46:41;95441.22;;;9.55;100.00
11444;BME280;5778;47.856;12.154;2023-03-26T07:49:31;95436.19;;;9.63;100.00
11444;BME280;5778;47.856;12.154;2023-03-26T07:52:35;95421.59;;;9.51;100.00
11444;BME280;5778;47.856;12.154;2023-03-26T07:55:15;95401.41;;;9.65;100.00
11444;BME280;5778;47.856;12.154;2023-03-26T07:58:10;95395.88;;;9.41;100.00
11444;BME280;5778;47.856;12.154;2023-03-26T08:01:04;95396.38;;;9.53;100.00
11444;BME280;5778;47.856;12.154;2023-03-26T08:03:46;95377.22;;;9.66;100.00
11444;BME280;5778;47.856;12.154;2023-03-26T08:06:49;95373.50;;;9.77;100.00
11444;BME280;5778;47.856;12.154;2023-03-26T08:09:58;95366.88;;;9.75;100.00
11444;BME280;5778;47.856;12.154;2023-03-26T08:12:46;95376.44;;;9.71;100.00
11444;BME280;5778;47.856;12.154;2023-03-26T08:15:21;95385.72;;;9.78;100.00
11444;BME280;5778;47.856;12.154;2023-03-26T08:17:58;95395.28;;;9.74;100.00
11444;BME280;5778;47.856;12.154;2023-03-26T08:20:36;95399.53;;;9.60;100.00
11444;BME280;5778;47.856;12.154;2023-03-26T08:23:14;95402.44;;;9.79;100.00
11444;BME280;5778;47.856;12.154;2023-03-26T08:25:52;95397.34;;;9.92;100.00
11444;BME280;5778;47.856;12.154;2023-03-26T08:28:36;95391.22;;;10.02;100.00
11444;BME280;5778;47.856;12.154;2023-03-26T08:31:07;95384.31;;;10.01;100.00
11444;BME280;5778;47.856;12.154;2023-03-26T08:33:35;95369.09;;;10.26;100.00
11444;BME280;5778;47.856;12.154;2023-03-26T08:36:02;95355.19;;;10.49;100.00
11444;BME280;5778;47.856;12.154;2023-03-26T08:38:30;95352.50;;;10.54;100.00
11444;BME280;5778;47.856;12.154;2023-03-26T08:44:26;95334.44;;;10.90;100.00
11444;BME280;5778;47.856;12.154;2023-03-26T08:47:25;95328.50;;;11.03;100.00
11444;BME280;5778;47.856;12.154;2023-03-26T08:50:24;95324.97;;;11.07;100.00
11444;BME280;5778;47.856;12.154;2023-03-26T08:56:07;95314.91;;;11.04;100.00
11444;BME280;5778;47.856;12.154;2023-03-26T08:59:19;95299.91;;;11.13;100.00
11444;BME280;5778;47.856;12.154;2023-03-26T09:05:29;95294.66;;;11.08;100.00
11444;BME280;5778;47.856;12.154;2023-03-26T09:08:38;95309.59;;;11.04;100.00
11444;BME280;5778;47.856;12.154;2023-03-26T09:11:32;95302.38;;;11.05;100.00
11444;BME280;5778;47.856;12.154;2023-03-26T09:17:17;95312.00;;;11.29;100.00
11444;BME280;5778;47.856;12.154;2023-03-26T09:20:25;95312.53;;;11.31;100.00
11444;BME280;5778;47.856;12.154;2023-03-26T09:23:18;95333.97;;;11.45;100.00
11444;BME280;5778;47.856;12.154;2023-03-26T09:25:59;95319.81;;;11.49;100.00
11444;BME280;5778;47.856;12.154;2023-03-26T09:28:55;95330.22;;;11.17;100.00
11444;BME280;5778;47.856;12.154;2023-03-26T09:31:44;95329.59;;;10.97;100.00
11444;BME280;5778;47.856;12.154;2023-03-26T09:34:36;95327.97;;;11.01;100.00
11444;BME280;5778;47.856;12.154;2023-03-26T09:37:16;95326.34;;;11.05;100.00
11444;BME280;5778;47.856;12.154;2023-03-26T09:39:58;95309.41;;;11.24;100.00
11444;BME280;5778;47.856;12.154;2023-03-26T09:42:36;95276.78;;;11.42;100.00
11444;BME280;5778;47.856;12.154;2023-03-26T09:45:23;95262.41;;;11.15;100.00
11444;BME280;5778;47.856;12.154;2023-03-26T09:48:19;95254.91;;;10.93;100.00
11444;BME280;5778;47.856;12.154;2023-03-26T09:50:59;95259.31;;;11.03;100.00
11444;BME280;5778;47.856;12.154;2023-03-26T09:53:57;95264.22;;;11.19;100.00
11444;BME280;5778;47.856;12.154;2023-03-26T09:56:42;95282.16;;;11.37;100.00
11444;BME280;5778;47.856;12.154;2023-03-26T09:59:35;95289.00;;;11.15;100.00
11444;BME280;5778;47.856;12.154;2023-03-26T10:02:17;95292.44;;;10.87;100.00
11444;BME280;5778;47.856;12.154;2023-03-26T10:05:00;95287.41;;;10.85;100.00
11444;BME280;5778;47.856;12.154;2023-03-26T10:07:41;95293.63;;;10.71;100.00
11444;BME280;5778;47.856;12.154;2023-03-26T10:10:21;95305.81;;;10.77;100.00
11444;BME280;5778;47.856;12.154;2023-03-26T10:12:56;95308.50;;;10.72;100.00
11444;BME280;5778;47.856;12.154;2023-03-26T10:15:31;95315.53;;;10.58;100.00
11444;BME280;5778;47.856;12.154;2023-03-26T10:18:10;95314.69;;;10.62;100.00
11444;BME280;5778;47.856;12.154;2023-03-26T10:20:54;95315.16;;;10.69;100.00
11444;BME280;5778;47.856;12.154;2023-03-26T10:26:32;95312.88;;;10.58;100.00
11444;BME280;5778;47.856;12.154;2023-03-26T10:29:17;95301.53;;;10.81;100.00
11444;BME280;5778;47.856;12.154;2023-03-26T10:31:51;95289.19;;;10.95;100.00
11444;BME280;5778;47.856;12.154;2023-03-26T10:34:43;95281.16;;;11.00;100.00
11444;BME280;5778;47.856;12.154;2023-03-26T10:37:16;95281.50;;;10.93;100.00
11444;BME280;5778;47.856;12.154;2023-03-26T10:40:04;95286.47;;;11.00;100.00
11444;BME280;5778;47.856;12.154;2023-03-26T10:42:52;95281.06;;;11.10;100.00
11444;BME280;5778;47.856;12.154;2023-03-26T10:45:37;95295.91;;;11.16;100.00
11444;BME280;5778;47.856;12.154;2023-03-26T10:48:24;95287.97;;;11.11;100.00
11444;BME280;5778;47.856;12.154;2023-03-26T10:51:06;95295.19;;;11.10;100.00
11444;BME280;5778;47.856;12.154;2023-03-26T10:53:42;95311.56;;;10.89;100.00
11444;BME280;5778;47.856;12.154;2023-03-26T10:56:19;95310.56;;;10.85;100.00
11444;BME280;5778;47.856;12.154;2023-03-26T10:58:48;95310.47;;;10.95;100.00
11444;BME280;5778;47.856;12.154;2023-03-26T11:01:23;95315.63;;;10.81;100.00
11444;BME280;5778;47.856;12.154;2023-03-26T11:04:00;95315.63;;;10.81;100.00
11444;BME280;5778;47.856;12.154;2023-03-26T11:06:36;95293.69;;;10.99;100.00
11444;BME280;5778;47.856;12.154;2023-03-26T11:09:17;95277.31;;;11.11;100.00
11444;BME280;5778;47.856;12.154;2023-03-26T11:11:52;95276.09;;;11.27;100.00
11444;BME280;5778;47.856;12.154;2023-03-26T11:14:24;95260.53;;;11.44;100.00
11444;BME280;5778;47.856;12.154;2023-03-26T11:17:00;95258.59;;;11.49;100.00
11444;BME280;5778;47.856;12.154;2023-03-26T11:19:33;95249.72;;;11.59;100.00
11444;BME280;5778;47.856;12.154;2023-03-26T11:22:16;95254.66;;;11.70;100.00
11444;BME280;5778;47.856;12.154;2023-03-26T11:25:01;95250.78;;;11.58;100.00
11444;BME280;5778;47.856;12.154;2023-03-26T11:27:44;95240.72;;;11.97;100.00
11444;BME280;5778;47.856;12.154;2023-03-26T11:30:20;95246.94;;;11.69;100.00
11444;BME280;5778;47.856;12.154;2023-03-26T11:32:55;95252.53;;;11.91;100.00
11444;BME280;5778;47.856;12.154;2023-03-26T11:35:26;95252.25;;;11.92;100.00
11444;BME280;5778;47.856;12.154;2023-03-26T11:38:02;95239.50;;;11.89;100.00
11444;BME280;5778;47.856;12.154;2023-03-26T11:40:33;95240.66;;;12.02;100.00
11444;BME280;5778;47.856;12.154;2023-03-26T11:43:06;95233.88;;;11.91;100.00
11444;BME280;5778;47.856;12.154;2023-03-26T11:45:35;95238.66;;;11.94;100.00
11444;BME280;5778;47.856;12.154;2023-03-26T11:48:07;95234.81;;;11.81;100.00
11444;BME280;5778;47.856;12.154;2023-03-26T11:50:41;95242.03;;;11.99;100.00
11444;BME280;5778;47.856;12.154;2023-03-26T11:53:12;95238.94;;;11.92;100.00
11444;BME280;5778;47.856;12.154;2023-03-26T11:55:46;95224.41;;;12.22;100.00
11444;BME280;5778;47.856;12.154;2023-03-26T11:58:23;95219.28;;;12.25;100.00
11444;BME280;5778;47.856;12.154;2023-03-26T12:00:54;95212.72;;;12.36;100.00
11444;BME280;5778;47.856;12.154;2023-03-26T12:03:22;95214.28;;;12.56;100.00
11444;BME280;5778;47.856;12.154;2023-03-26T12:05:51;95214.66;;;12.81;100.00
11444;BME280;5778;47.856;12.154;2023-03-26T12:08:31;95204.72;;;12.87;100.00
11444;BME280;5778;47.856;12.154;2023-03-26T12:11:03;95189.59;;;12.50;100.00
11444;BME280;5778;47.856;12.154;2023-03-26T12:13:36;95190.97;;;12.48;100.00
11444;BME280;5778;47.856;12.154;2023-03-26T12:16:09;95191.25;;;12.28;100.00
11444;BME280;5778;47.856;12.154;2023-03-26T12:18:38;95199.69;;;11.98;100.00
11444;BME280;5778;47.856;12.154;2023-03-26T12:21:10;95198.91;;;12.16;100.00
11444;BME280;5778;47.856;12.154;2023-03-26T12:23:52;95205.97;;;12.07;100.00
11444;BME280;5778;47.856;12.154;2023-03-26T12:26:35;95194.50;;;12.25;100.00
11444;BME280;5778;47.856;12.154;2023-03-26T12:29:10;95204.50;;;11.96;100.00
11444;BME280;5778;47.856;12.154;2023-03-26T12:31:45;95198.69;;;11.94;100.00
11444;BME280;5778;47.856;12.154;2023-03-26T12:34:16;95203.66;;;11.82;100.00
11444;BME280;5778;47.856;12.154;2023-03-26T12:36:49;95210.53;;;11.64;100.00
11444;BME280;5778;47.856;12.154;2023-03-26T12:39:41;95209.25;;;11.57;100.00
11444;BME280;5778;47.856;12.154;2023-03-26T12:42:24;95211.81;;;11.43;100.00
11444;BME280;5778;47.856;12.154;2023-03-26T12:44:52;95210.78;;;11.39;100.00
11444;BME280;5778;47.856;12.154;2023-03-26T12:47:24;95202.75;;;11.44;100.00
11444;BME280;5778;47.856;12.154;2023-03-26T12:49:53;95200.13;;;11.39;100.00
11444;BME280;5778;47.856;12.154;2023-03-26T12:52:36;95203.00;;;11.43;100.00
11444;BME280;5778;47.856;12.154;2023-03-26T12:55:20;95202.69;;;11.26;100.00
11444;BME280;5778;47.856;12.154;2023-03-26T12:58:00;95189.38;;;11.26;100.00
11444;BME280;5778;47.856;12.154;2023-03-26T13:00:39;95196.22;;;11.32;100.00
11444;BME280;5778;47.856;12.154;2023-03-26T13:03:19;95200.78;;;11.31;100.00
11444;BME280;5778;47.856;12.154;2023-03-26T13:06:27;95199.28;;;11.20;100.00
11444;BME280;5778;47.856;12.154;2023-03-26T13:09:12;95213.19;;;11.12;100.00
11444;BME280;5778;47.856;12.154;2023-03-26T13:11:54;95199.66;;;11.09;100.00
11444;BME280;5778;47.856;12.154;2023-03-26T13:14:44;95215.97;;;11.02;100.00
11444;BME280;5778;47.856;12.154;2023-03-26T13:17:22;95190.22;;;10.98;100.00
11444;BME280;5778;47.856;12.154;2023-03-26T13:20:00;95200.91;;;10.93;100.00
11444;BME280;5778;47.856;12.154;2023-03-26T13:22:40;95184.66;;;10.94;100.00
11444;BME280;5778;47.856;12.154;2023-03-26T13:25:21;95196.38;;;10.93;100.00
11444;BME280;5778;47.856;12.154;2023-03-26T13:28:02;95175.94;;;10.89;100.00
11444;BME280;5778;47.856;12.154;2023-03-26T13:30:36;95143.47;;;10.92;100.00
11444;BME280;5778;47.856;12.154;2023-03-26T13:33:22;95153.56;;;10.95;100.00
11444;BME280;5778;47.856;12.154;2023-03-26T13:35:58;95154.59;;;10.94;100.00
11444;BME280;5778;47.856;12.154;2023-03-26T13:38:31;95171.63;;;10.93;100.00
11444;BME280;5778;47.856;12.154;2023-03-26T13:41:08;95165.25;;;10.94;100.00
11444;BME280;5778;47.856;12.154;2023-03-26T13:44:01;95156.75;;;10.92;100.00
11444;BME280;5778;47.856;12.154;2023-03-26T13:46:33;95126.88;;;10.76;100.00
11444;BME280;5778;47.856;12.154;2023-03-26T13:49:03;95136.75;;;10.71;100.00
11444;BME280;5778;47.856;12.154;2023-03-26T13:51:35;95145.19;;;10.78;100.00
11444;BME280;5778;47.856;12.154;2023-03-26T13:54:12;95154.81;;;10.74;100.00
11444;BME280;5778;47.856;12.154;2023-03-26T13:56:44;95147.84;;;10.78;100.00
11444;BME280;5778;47.856;12.154;2023-03-26T13:59:18;95141.47;;;10.79;100.00
11444;BME280;5778;47.856;12.154;2023-03-26T14:01:52;95155.81;;;10.78;100.00
11444;BME280;5778;47.856;12.154;2023-03-26T14:04:23;95148.94;;;10.77;100.00
11444;BME280;5778;47.856;12.154;2023-03-26T14:07:00;95142.59;;;10.73;100.00